Weingarten, Missouri
Current Conditions -  °F | °C
As of 8:35 AM on Friday 24 Oct 2014 (Local Time) from KSAR Reporting Station
Overcast Overcast  
Wind Chill: 53°   Ceiling: 900
Heat Index: 53°   Visibility: 10mi
Dew Point: 49°   Wind: 0mph
Humidity: 85%   Direction: NA
Pressure: 30.12"   Gusts: NA
Location:  37.9762°N, 90.0499°W
Report Text: KSAR 241335Z AUTO 00000KT 10SM BKN009 OVC037 12/09 A3012 RMK AO2 T01180094
Loading
Personal Weather Stations






























Interactive Weather Map
Tropical Storm Tracking
New forecast layout! Learn more

10-Day Weather Forecast

Advertisements
Track Severe Weather on mobile